createdAt,value
2019-05-21T00:00:13.291Z,11.20
2019-05-21T00:02:42.052Z,11.20
2019-05-21T00:05:11.107Z,11.20
2019-05-21T00:07:39.809Z,11.20
2019-05-21T00:10:08.703Z,11.20
2019-05-21T00:12:37.417Z,11.20
2019-05-21T00:15:07.198Z,11.20
2019-05-21T00:17:35.890Z,11.20
2019-05-21T00:20:07.080Z,11.20
2019-05-21T00:22:35.956Z,11.20
2019-05-21T00:25:06.626Z,11.20
2019-05-21T00:27:35.313Z,11.20
2019-05-21T00:30:40.428Z,11.20
2019-05-21T00:33:45.922Z,11.20
2019-05-21T00:36:53.870Z,11.20
2019-05-21T00:39:59.147Z,11.30
2019-05-21T00:42:30.763Z,11.30
2019-05-21T00:44:59.446Z,11.30
2019-05-21T00:47:28.234Z,11.20
2019-05-21T00:49:57.130Z,11.20
2019-05-21T00:52:25.822Z,11.20
2019-05-21T00:54:54.954Z,11.30
2019-05-21T00:57:23.678Z,11.30
2019-05-21T00:59:52.298Z,11.30
2019-05-21T01:02:21.052Z,11.30
2019-05-21T01:05:00.454Z,11.30
2019-05-21T01:07:20.445Z,11.20
2019-05-21T01:09:49.447Z,11.30
2019-05-21T01:12:18.158Z,11.30
2019-05-21T01:14:46.848Z,11.30
2019-05-21T01:17:15.540Z,11.20
2019-05-21T01:19:44.244Z,11.20
2019-05-21T01:22:12.931Z,11.20
2019-05-21T01:24:41.614Z,11.20
2019-05-21T01:27:10.335Z,11.20
2019-05-21T01:29:39.018Z,11.20
2019-05-21T01:32:07.963Z,11.20
2019-05-21T01:34:36.901Z,11.20
2019-05-21T01:37:05.544Z,11.20
2019-05-21T01:39:34.234Z,11.20
2019-05-21T01:42:02.910Z,11.20
2019-05-21T01:44:31.586Z,11.20
2019-05-21T01:47:00.275Z,11.20
2019-05-21T01:49:29.168Z,11.20
2019-05-21T01:51:57.855Z,11.20
2019-05-21T01:54:26.540Z,11.20
2019-05-21T01:56:55.443Z,11.10
2019-05-21T01:59:24.126Z,11.10
2019-05-21T02:01:52.822Z,11.10
2019-05-21T02:04:21.546Z,11.10
2019-05-21T02:06:50.477Z,11.10
2019-05-21T02:09:19.090Z,11.00
2019-05-21T02:11:47.811Z,11.00
2019-05-21T02:14:16.490Z,11.00
2019-05-21T02:16:45.178Z,11.00
2019-05-21T02:19:15.126Z,11.00
2019-05-21T02:21:43.807Z,11.00
2019-05-21T02:24:12.496Z,11.00
2019-05-21T02:26:41.208Z,11.00
2019-05-21T02:29:09.890Z,10.90
2019-05-21T02:31:38.573Z,11.00
2019-05-21T02:34:07.361Z,11.00
2019-05-21T02:36:36.047Z,10.90
2019-05-21T02:39:07.234Z,10.90
2019-05-21T02:41:36.353Z,10.90
2019-05-21T02:44:05.182Z,10.80
2019-05-21T02:46:33.867Z,10.90
2019-05-21T02:49:02.574Z,10.90
2019-05-21T02:51:31.267Z,10.90
2019-05-21T02:53:59.965Z,10.90
2019-05-21T02:56:28.691Z,10.90
2019-05-21T02:58:57.377Z,10.90
2019-05-21T03:01:27.720Z,10.90
2019-05-21T03:03:56.430Z,10.90
2019-05-21T03:06:25.113Z,10.90
2019-05-21T03:08:53.793Z,11.00
2019-05-21T03:11:22.507Z,11.00
2019-05-21T03:13:51.200Z,11.00
2019-05-21T03:16:19.946Z,11.00
2019-05-21T03:18:48.647Z,11.00
2019-05-21T03:21:17.334Z,11.00
2019-05-21T03:23:46.019Z,11.00
2019-05-21T03:26:14.837Z,11.00
2019-05-21T03:28:43.519Z,11.00
2019-05-21T03:31:12.225Z,11.00
2019-05-21T03:33:41.110Z,11.00
2019-05-21T03:36:10.135Z,11.00
2019-05-21T03:38:38.837Z,11.00
2019-05-21T03:41:07.553Z,11.00
2019-05-21T03:43:36.255Z,10.90
2019-05-21T03:46:04.949Z,11.00
2019-05-21T03:48:33.866Z,10.90
2019-05-21T03:51:03.402Z,10.90
2019-05-21T03:53:32.070Z,10.90
2019-05-21T03:56:00.794Z,10.90
2019-05-21T03:58:29.516Z,10.90
2019-05-21T04:00:58.472Z,10.80
2019-05-21T04:03:27.679Z,10.80
2019-05-21T04:05:56.373Z,10.80
2019-05-21T04:08:25.366Z,10.80
2019-05-21T04:10:54.229Z,10.80
2019-05-21T04:13:22.924Z,10.80
2019-05-21T04:15:53.256Z,10.80
2019-05-21T04:18:23.608Z,10.80
2019-05-21T04:20:52.299Z,10.80
2019-05-21T04:23:21.293Z,10.80
2019-05-21T04:25:50.242Z,10.70
2019-05-21T04:28:18.940Z,10.80
2019-05-21T04:30:47.708Z,10.70
2019-05-21T04:33:16.427Z,10.70
2019-05-21T04:35:45.461Z,10.70
2019-05-21T04:38:14.157Z,10.70
2019-05-21T04:40:42.876Z,10.80
2019-05-21T04:43:11.569Z,10.80
2019-05-21T04:45:40.276Z,10.80
2019-05-21T04:48:09.075Z,10.70
2019-05-21T04:50:37.766Z,10.70
2019-05-21T04:53:06.470Z,10.70
2019-05-21T04:55:35.349Z,10.70
2019-05-21T04:58:04.150Z,10.80
2019-05-21T05:00:32.834Z,10.80
2019-05-21T05:03:01.484Z,10.80
2019-05-21T05:05:30.252Z,10.70
2019-05-21T05:07:58.939Z,10.70
2019-05-21T05:10:27.793Z,10.70
2019-05-21T05:12:56.479Z,10.70
2019-05-21T05:15:25.088Z,10.70
2019-05-21T05:17:53.810Z,10.70
2019-05-21T05:20:22.530Z,10.70
2019-05-21T05:22:51.227Z,10.70
2019-05-21T05:25:19.958Z,10.70
2019-05-21T05:27:48.693Z,10.70
2019-05-21T05:30:17.576Z,10.70
2019-05-21T05:32:46.318Z,10.70
2019-05-21T05:35:14.994Z,10.70
2019-05-21T05:37:48.375Z,10.80
2019-05-21T05:40:15.235Z,10.70
2019-05-21T05:42:43.930Z,10.80
2019-05-21T05:45:13.718Z,10.80
2019-05-21T05:47:42.582Z,10.80
2019-05-21T05:50:15.902Z,10.80
2019-05-21T05:52:44.606Z,10.80
2019-05-21T05:55:13.523Z,10.80
2019-05-21T05:57:42.221Z,10.80
2019-05-21T06:00:12.839Z,10.80
2019-05-21T06:02:41.571Z,10.80
2019-05-21T06:05:10.666Z,10.80
2019-05-21T06:07:39.355Z,10.90
2019-05-21T06:10:08.283Z,10.90
2019-05-21T06:12:36.980Z,10.90
2019-05-21T06:15:07.188Z,10.90
2019-05-21T06:17:35.932Z,10.90
2019-05-21T06:20:06.343Z,10.90
2019-05-21T06:22:35.019Z,10.90
2019-05-21T06:25:05.478Z,10.90
2019-05-21T06:27:34.413Z,11.00
2019-05-21T06:30:04.511Z,11.00
2019-05-21T06:32:33.388Z,11.00
2019-05-21T06:35:02.083Z,11.00
2019-05-21T06:37:30.778Z,11.00
2019-05-21T06:39:59.509Z,11.00
2019-05-21T06:42:28.194Z,11.10
2019-05-21T06:44:56.889Z,11.10
2019-05-21T06:47:25.618Z,11.10
2019-05-21T06:49:54.306Z,11.10
2019-05-21T06:52:22.923Z,11.20
2019-05-21T06:54:51.670Z,11.20
2019-05-21T06:57:20.358Z,11.20
2019-05-21T06:59:48.979Z,11.20
2019-05-21T07:02:17.706Z,11.20
2019-05-21T07:04:46.402Z,11.20
2019-05-21T07:07:15.100Z,11.20
2019-05-21T07:09:43.835Z,11.20
2019-05-21T07:12:12.519Z,11.20
2019-05-21T07:14:41.217Z,11.30
2019-05-21T07:17:09.926Z,11.20
2019-05-21T07:19:38.623Z,11.30
2019-05-21T07:22:12.686Z,11.30
2019-05-21T07:24:37.693Z,11.30
2019-05-21T07:27:06.357Z,11.30
2019-05-21T07:29:35.060Z,11.30
2019-05-21T07:32:04.147Z,11.30
2019-05-21T07:34:33.145Z,11.30
2019-05-21T07:37:01.843Z,11.40
2019-05-21T07:39:30.591Z,11.30
2019-05-21T07:41:59.340Z,11.40
2019-05-21T07:44:27.994Z,11.40
2019-05-21T07:46:56.704Z,11.40
2019-05-21T07:49:25.400Z,11.40
2019-05-21T07:51:54.128Z,11.40
2019-05-21T07:54:22.832Z,11.40
2019-05-21T07:56:51.518Z,11.40
2019-05-21T07:59:20.206Z,11.40
2019-05-21T08:01:49.421Z,11.40
2019-05-21T08:04:18.110Z,11.30
2019-05-21T08:06:46.802Z,11.30
2019-05-21T08:09:15.526Z,11.30
2019-05-21T08:11:46.921Z,11.30
2019-05-21T08:14:14.560Z,11.20
2019-05-21T08:16:43.299Z,11.20
2019-05-21T08:19:12.397Z,11.10
2019-05-21T08:21:41.190Z,11.10
2019-05-21T08:24:10.075Z,11.10
2019-05-21T08:26:40.837Z,11.10
2019-05-21T08:29:09.513Z,11.00
2019-05-21T08:31:38.539Z,11.10
2019-05-21T08:34:07.331Z,11.00
2019-05-21T08:36:36.678Z,11.10
2019-05-21T08:39:07.352Z,11.10
2019-05-21T08:41:36.007Z,11.10
2019-05-21T08:44:05.157Z,11.10
2019-05-21T08:46:34.027Z,11.20
2019-05-21T08:49:02.852Z,11.20
2019-05-21T08:51:31.581Z,11.20
2019-05-21T08:54:00.590Z,11.20
2019-05-21T08:56:29.221Z,11.30
2019-05-21T08:58:57.894Z,11.30
2019-05-21T09:01:26.897Z,11.30
2019-05-21T09:03:55.573Z,11.30
2019-05-21T09:06:24.263Z,11.30
2019-05-21T09:08:53.298Z,11.30
2019-05-21T09:11:22.023Z,11.30
2019-05-21T09:13:50.718Z,11.40
2019-05-21T09:16:19.462Z,11.40
2019-05-21T09:18:48.148Z,11.30
2019-05-21T09:21:16.847Z,11.30
2019-05-21T09:23:45.575Z,11.30
2019-05-21T09:26:14.270Z,11.30
2019-05-21T09:28:43.323Z,11.30
2019-05-21T09:31:12.056Z,11.30
2019-05-21T09:33:40.751Z,11.20
2019-05-21T09:36:09.435Z,11.20
2019-05-21T09:38:38.540Z,11.30
2019-05-21T09:41:07.317Z,11.20
2019-05-21T09:43:36.014Z,11.20
2019-05-21T09:46:05.007Z,11.20
2019-05-21T09:48:33.702Z,11.20
2019-05-21T09:51:02.405Z,11.20
2019-05-21T09:53:31.134Z,11.20
2019-05-21T09:56:01.463Z,11.30
2019-05-21T09:58:34.490Z,11.20
2019-05-21T10:01:16.811Z,11.30
2019-05-21T10:03:50.219Z,11.30
2019-05-21T10:06:18.982Z,11.40
2019-05-21T10:08:49.390Z,11.50
2019-05-21T10:11:18.075Z,11.50
2019-05-21T10:13:46.815Z,11.50
2019-05-21T10:16:15.682Z,11.40
2019-05-21T10:18:46.328Z,11.40
2019-05-21T10:21:14.722Z,11.40
2019-05-21T10:23:43.628Z,11.40
2019-05-21T10:26:12.505Z,11.40
2019-05-21T10:28:41.196Z,11.40
2019-05-21T10:31:09.923Z,11.40
2019-05-21T10:33:38.618Z,11.50
2019-05-21T10:36:07.837Z,11.40
2019-05-21T10:38:36.555Z,11.50
2019-05-21T10:41:05.576Z,11.50
2019-05-21T10:43:34.375Z,11.50
2019-05-21T10:46:03.171Z,11.50
2019-05-21T10:48:31.873Z,11.60
2019-05-21T10:51:00.621Z,11.60
2019-05-21T10:53:29.566Z,11.70
2019-05-21T10:55:58.579Z,11.60
2019-05-21T10:58:27.470Z,11.70
2019-05-21T11:00:58.407Z,11.70
2019-05-21T11:03:44.010Z,11.70
2019-05-21T11:06:14.627Z,11.70
2019-05-21T11:08:43.431Z,11.60
2019-05-21T11:11:12.470Z,11.60
2019-05-21T11:13:41.179Z,11.60
2019-05-21T11:16:10.066Z,11.60
2019-05-21T11:18:38.750Z,11.60
2019-05-21T11:21:07.499Z,11.70
2019-05-21T11:23:36.201Z,11.70
2019-05-21T11:26:05.722Z,11.70
2019-05-21T11:28:34.458Z,11.70
2019-05-21T11:31:03.221Z,11.70
2019-05-21T11:33:31.911Z,11.80
2019-05-21T11:36:00.823Z,11.70
2019-05-21T11:38:39.389Z,11.80
2019-05-21T11:40:59.879Z,11.80
2019-05-21T11:43:28.611Z,11.90
2019-05-21T11:45:57.658Z,11.90
2019-05-21T11:48:26.355Z,11.90
2019-05-21T11:50:55.178Z,12.00
2019-05-21T11:53:23.871Z,11.90
2019-05-21T11:55:52.842Z,11.90
2019-05-21T11:58:22.165Z,11.90
2019-05-21T12:00:51.118Z,11.90
2019-05-21T12:03:19.734Z,11.90
2019-05-21T12:05:48.383Z,11.90
2019-05-21T12:08:17.066Z,11.80
2019-05-21T12:10:46.716Z,11.90
2019-05-21T12:13:15.444Z,11.90
2019-05-21T12:15:44.136Z,12.00
2019-05-21T12:18:12.830Z,12.00
2019-05-21T12:20:41.631Z,12.00
2019-05-21T12:23:10.327Z,12.10
2019-05-21T12:25:39.014Z,12.10
2019-05-21T12:28:11.157Z,12.10
2019-05-21T12:30:38.477Z,12.10
2019-05-21T12:33:07.159Z,12.10
2019-05-21T12:35:35.966Z,12.10
2019-05-21T12:38:04.759Z,12.10
2019-05-21T12:40:33.479Z,12.10
2019-05-21T12:43:02.506Z,12.00
2019-05-21T12:45:31.283Z,12.10
2019-05-21T12:47:59.981Z,12.10
2019-05-21T12:50:28.699Z,12.10
2019-05-21T12:52:57.446Z,12.10
2019-05-21T12:55:26.147Z,12.10
2019-05-21T12:57:54.887Z,12.10
2019-05-21T13:00:25.056Z,12.10
2019-05-21T13:02:53.746Z,12.10
2019-05-21T13:05:22.479Z,12.10
2019-05-21T13:07:51.169Z,12.10
2019-05-21T13:10:19.868Z,12.20
2019-05-21T13:12:48.876Z,12.20
2019-05-21T13:15:17.562Z,12.10
2019-05-21T13:17:46.255Z,12.10
2019-05-21T13:20:16.147Z,12.10
2019-05-21T13:22:44.925Z,12.10
2019-05-21T13:25:14.398Z,12.10
2019-05-21T13:27:43.110Z,12.10
2019-05-21T13:30:12.126Z,12.10
2019-05-21T13:32:43.672Z,12.10
2019-05-21T13:35:12.023Z,12.10
2019-05-21T13:37:40.783Z,12.10
2019-05-21T13:40:10.403Z,12.10
2019-05-21T13:42:39.123Z,12.10
2019-05-21T13:45:10.243Z,12.10
2019-05-21T13:47:38.912Z,12.10
2019-05-21T13:50:10.250Z,12.20
2019-05-21T13:52:38.996Z,12.20
2019-05-21T13:55:08.842Z,12.20
2019-05-21T13:57:37.515Z,12.30
2019-05-21T14:00:11.679Z,12.30
2019-05-21T14:02:40.362Z,12.40
2019-05-21T14:05:10.451Z,12.30
2019-05-21T14:07:40.498Z,12.40
2019-05-21T14:10:15.359Z,12.40
2019-05-21T14:12:40.585Z,12.30
2019-05-21T14:15:09.206Z,12.20
2019-05-21T14:17:37.897Z,12.20
2019-05-21T14:20:08.928Z,12.20
2019-05-21T14:22:38.195Z,12.20
2019-05-21T14:25:07.680Z,12.20
2019-05-21T14:27:44.428Z,12.20
2019-05-21T14:30:09.607Z,12.20
2019-05-21T14:32:38.355Z,12.20
2019-05-21T14:35:07.259Z,12.20
2019-05-21T14:37:36.027Z,12.20
2019-05-21T14:40:06.695Z,12.10
2019-05-21T14:42:35.460Z,12.20
2019-05-21T14:45:06.083Z,12.20
2019-05-21T14:47:35.301Z,12.20
2019-05-21T14:50:06.175Z,12.20
2019-05-21T14:52:34.884Z,12.20
2019-05-21T14:55:05.096Z,12.30
2019-05-21T14:57:33.834Z,12.30
2019-05-21T15:00:04.158Z,12.40
2019-05-21T15:02:32.917Z,12.30
2019-05-21T15:05:01.940Z,12.30
2019-05-21T15:07:30.639Z,12.40
2019-05-21T15:09:59.324Z,12.40
2019-05-21T15:12:28.049Z,12.40
2019-05-21T15:14:56.753Z,12.40
2019-05-21T15:17:25.449Z,12.40
2019-05-21T15:19:55.803Z,12.40
2019-05-21T15:22:24.505Z,12.40
2019-05-21T15:24:53.183Z,12.50
2019-05-21T15:27:21.910Z,12.50
2019-05-21T15:29:50.595Z,12.50
2019-05-21T15:32:19.308Z,12.50
2019-05-21T15:34:48.026Z,12.50
2019-05-21T15:37:16.720Z,12.50
2019-05-21T15:39:45.406Z,12.50
2019-05-21T15:42:14.146Z,12.50
2019-05-21T15:44:42.835Z,12.50
2019-05-21T15:47:11.545Z,12.50
2019-05-21T15:49:40.254Z,12.50
2019-05-21T15:52:08.959Z,12.50
2019-05-21T15:54:37.654Z,12.50
2019-05-21T15:57:06.378Z,12.50
2019-05-21T15:59:35.069Z,12.60
2019-05-21T16:02:04.589Z,12.60
2019-05-21T16:04:33.719Z,12.60
2019-05-21T16:07:02.416Z,12.60
2019-05-21T16:09:31.118Z,12.60
2019-05-21T16:11:59.840Z,12.60
2019-05-21T16:14:28.536Z,12.70
2019-05-21T16:16:57.230Z,12.70
2019-05-21T16:19:26.130Z,12.70
2019-05-21T16:21:54.947Z,12.70
2019-05-21T16:24:23.636Z,12.60
2019-05-21T16:26:52.338Z,12.70
2019-05-21T16:29:22.234Z,12.60
2019-05-21T16:31:51.967Z,12.60
2019-05-21T16:34:20.690Z,12.60
2019-05-21T16:36:49.341Z,12.60
2019-05-21T16:39:19.683Z,12.70
2019-05-21T16:41:48.419Z,12.70
2019-05-21T16:44:17.196Z,12.60
2019-05-21T16:46:46.021Z,12.60
2019-05-21T16:49:15.702Z,12.60
2019-05-21T16:51:44.458Z,12.70
2019-05-21T16:54:13.089Z,12.60
2019-05-21T16:56:42.103Z,12.60
2019-05-21T16:59:10.821Z,12.60
2019-05-21T17:01:39.514Z,12.60
2019-05-21T17:04:08.242Z,12.60
2019-05-21T17:06:36.950Z,12.60
2019-05-21T17:09:08.143Z,12.60
2019-05-21T17:11:36.862Z,12.60
2019-05-21T17:14:05.729Z,12.60
2019-05-21T17:16:34.425Z,12.60
2019-05-21T17:19:03.143Z,12.70
2019-05-21T17:21:31.884Z,12.70
2019-05-21T17:24:00.798Z,12.70
2019-05-21T17:26:29.774Z,12.70
2019-05-21T17:28:58.467Z,12.60
2019-05-21T17:31:27.282Z,12.60
2019-05-21T17:33:56.247Z,12.60
2019-05-21T17:36:25.322Z,12.60
2019-05-21T17:38:54.008Z,12.60
2019-05-21T17:41:22.818Z,12.60
2019-05-21T17:43:51.701Z,12.60
2019-05-21T17:46:20.501Z,12.50
2019-05-21T17:48:49.239Z,12.50
2019-05-21T17:51:18.396Z,12.50
2019-05-21T17:53:47.094Z,12.50
2019-05-21T17:56:15.983Z,12.50
2019-05-21T17:58:45.027Z,12.50
2019-05-21T18:01:15.582Z,12.50
2019-05-21T18:03:45.552Z,12.50
2019-05-21T18:06:14.539Z,12.50
2019-05-21T18:08:43.236Z,12.50
2019-05-21T18:11:14.367Z,12.50
2019-05-21T18:13:44.291Z,12.40
2019-05-21T18:16:14.050Z,12.40
2019-05-21T18:18:43.200Z,12.40
2019-05-21T18:21:13.004Z,12.40
2019-05-21T18:23:42.094Z,12.40
2019-05-21T18:26:10.946Z,12.40
2019-05-21T18:28:39.942Z,12.40
2019-05-21T18:31:08.647Z,12.40
2019-05-21T18:33:37.342Z,12.40
2019-05-21T18:36:06.134Z,12.40
2019-05-21T19:32:45.279Z,12.20
2019-05-21T19:35:14.070Z,12.10
2019-05-21T19:37:43.032Z,12.10
2019-05-21T19:40:12.115Z,12.10
2019-05-21T19:42:53.750Z,12.10
2019-05-21T19:45:11.785Z,12.10
2019-05-21T19:47:40.548Z,12.10
2019-05-21T19:50:09.546Z,12.10
2019-05-21T19:52:38.256Z,12.10
2019-05-21T19:55:07.857Z,12.10
2019-05-21T19:57:38.390Z,12.20
2019-05-21T20:00:08.216Z,12.20
2019-05-21T20:02:37.531Z,12.20
2019-05-21T20:05:08.389Z,12.10
2019-05-21T20:07:37.744Z,12.10
2019-05-21T20:10:10.453Z,12.10
2019-05-21T20:12:39.622Z,12.20
2019-05-21T20:15:09.187Z,12.10
2019-05-21T20:17:39.778Z,12.10
2019-05-21T20:20:10.243Z,12.10
2019-05-21T20:22:42.047Z,12.10
2019-05-21T20:25:12.959Z,12.10
2019-05-21T20:27:42.111Z,12.10
2019-05-21T20:30:13.554Z,12.20
2019-05-21T20:32:44.236Z,12.20
2019-05-21T20:35:15.491Z,12.20
2019-05-21T20:37:45.539Z,12.20
2019-05-21T20:40:15.776Z,12.20
2019-05-21T20:42:44.852Z,12.20
2019-05-21T20:45:15.483Z,12.20
2019-05-21T20:47:46.107Z,12.20
2019-05-21T20:50:16.830Z,12.20
2019-05-21T20:52:45.518Z,12.20
2019-05-21T20:55:17.522Z,12.20
2019-05-21T20:57:46.842Z,12.20
2019-05-21T21:00:18.878Z,12.20
2019-05-21T21:02:48.590Z,12.20
2019-05-21T21:05:17.560Z,12.20
2019-05-21T21:07:46.323Z,12.20
2019-05-21T21:10:15.649Z,12.20
2019-05-21T21:12:44.666Z,12.20
2019-05-21T21:15:14.046Z,12.20
2019-05-21T21:17:44.195Z,12.20
2019-05-21T21:20:13.711Z,12.20
2019-05-21T21:22:42.733Z,12.20
2019-05-21T21:25:12.126Z,12.20
2019-05-21T21:27:41.287Z,12.20
2019-05-21T21:30:10.720Z,12.20
2019-05-21T21:32:39.604Z,12.20
2019-05-21T21:35:09.938Z,12.20
2019-05-21T21:37:38.917Z,12.20
2019-05-21T21:40:09.959Z,12.10
2019-05-21T21:42:39.826Z,12.20
2019-05-21T21:45:09.335Z,12.20
2019-05-21T21:47:38.513Z,12.20
2019-05-21T21:50:07.578Z,12.20
2019-05-21T21:52:36.847Z,12.20
2019-05-21T21:55:06.927Z,12.20
2019-05-21T21:57:35.679Z,12.20
2019-05-21T22:00:07.366Z,12.20
2019-05-21T22:02:37.050Z,12.20
2019-05-21T22:05:08.216Z,12.20
2019-05-21T22:07:38.422Z,12.20
2019-05-21T22:10:08.423Z,12.20
2019-05-21T22:12:37.517Z,12.20
2019-05-21T22:15:07.775Z,12.20
2019-05-21T22:17:36.558Z,12.20
2019-05-21T22:20:08.218Z,12.20
2019-05-21T22:22:36.903Z,12.20
2019-05-21T22:25:07.028Z,12.20
2019-05-21T22:27:36.020Z,12.20
2019-05-21T22:30:06.831Z,12.20
2019-05-21T22:32:35.898Z,12.20
2019-05-21T22:35:05.790Z,12.20
2019-05-21T22:37:34.478Z,12.20
2019-05-21T22:40:03.445Z,12.20
2019-05-21T22:42:32.897Z,12.20
2019-05-21T22:45:08.077Z,12.20
2019-05-21T22:47:32.130Z,12.20
2019-05-21T22:50:00.828Z,12.20
2019-05-21T22:52:29.528Z,12.20
2019-05-21T22:54:58.254Z,12.20
2019-05-21T22:57:26.957Z,12.20
2019-05-21T22:59:55.579Z,12.20
2019-05-21T23:02:26.134Z,12.20
2019-05-21T23:04:54.924Z,12.20
2019-05-21T23:07:23.869Z,12.20
2019-05-21T23:09:53.460Z,12.20
2019-05-21T23:12:22.727Z,12.20
2019-05-21T23:14:51.963Z,12.20
2019-05-21T23:17:21.259Z,12.20
2019-05-21T23:19:50.823Z,12.20
2019-05-21T23:22:22.353Z,12.20
2019-05-21T23:24:51.386Z,12.20
2019-05-21T23:27:20.655Z,12.20
2019-05-21T23:29:50.348Z,12.20
2019-05-21T23:32:19.715Z,12.20
2019-05-21T23:34:49.384Z,12.20
2019-05-21T23:37:19.908Z,12.20
2019-05-21T23:39:52.098Z,12.20
2019-05-21T23:42:29.559Z,12.20
2019-05-21T23:44:52.006Z,12.20
2019-05-21T23:47:21.899Z,12.20
2019-05-21T23:49:51.191Z,12.20
2019-05-21T23:52:20.078Z,12.20
2019-05-21T23:54:49.162Z,12.20
2019-05-21T23:57:23.282Z,12.20
2019-05-21T23:59:52.347Z,12.20
